KMFD/MFD METAR and TAF weather

Enter ICAO airport designator
Station Type Date Time Source
KMFD METAR 2022/12/04 03:52 UTC NOAA

KMFD 040352Z 25007KT 10SM CLR M03/M06 A3035 RMK AO2 SLP291 T10281061


Station Type Date Time Source
KMFD Decoded METAR 2022/12/04 03:52 UTC NOAA

LAHM MUNICIPAL AIRPORT, OH, United States (KMFD) 40-49N 082-31W 395M
Dec 03, 2022 - 10:52 PM EST / 2022.12.04 0352 UTC
Wind: from the WSW (250 degrees) at 8 MPH (7 KT):0
Visibility: 10 mile(s):0
Sky conditions: clear
Temperature: 27.0 F (-2.8 C)
Windchill: 19 F (-7 C):1
Dew Point: 21.0 F (-6.1 C)
Relative Humidity: 77%
Pressure (altimeter): 30.35 in. Hg (1027 hPa)
ob: KMFD 040352Z 25007KT 10SM CLR M03/M06 A3035 RMK AO2 SLP291 T10281061
cycle: 4

Station Type Date Time Source
KMFD TAF 2022/12/03 18:42 UTC NOAA

TAF KMFD 031738Z 0318/0418 26018G28KT P6SM OVC012
FM031900 29017G26KT P6SM OVC025
FM032300 29010G20KT P6SM SCT045
FM040300 28007KT P6SM FEW250
FM041700 23010G20KT P6SM SKC

Example: see airport list